Time;durP1;ratioP1;P1;durP2;ratioP2;P2;SDS_P1;SDS_P2;PMS_P1;PMS_P2;Temp;Humidity;BMP_temperature;BMP_pressure;BME280_temperature;BME280_humidity;BME280_pressure;Samples;Min_cycle;Max_cycle;Signal;HPM_P1;HPM_P2
2022/12/14 00:01:38;;;;;;;5.85;4.47;;;;;;;-1.81;76.34;96342.63;5140764;27;20043;-62
2022/12/14 00:04:10;;;;;;;6.32;4.50;;;;;;;-1.76;76.12;96353.78;5140787;27;20100;-66
2022/12/14 00:06:38;;;;;;;6.25;4.60;;;;;;;-1.73;76.00;96355.50;5140834;27;20047;-64
2022/12/14 00:09:05;;;;;;;7.53;4.75;;;;;;;-1.73;76.24;96363.22;5140883;27;20143;-66
2022/12/14 00:11:32;;;;;;;6.88;4.47;;;;;;;-1.72;75.77;96344.44;5140756;27;20058;-62
2022/12/14 00:14:01;;;;;;;7.03;4.50;;;;;;;-1.76;75.71;96355.50;5140699;27;20126;-62
2022/12/14 00:16:31;;;;;;;7.78;4.18;;;;;;;-1.79;76.13;96358.91;5140656;27;20047;-65
2022/12/14 00:19:00;;;;;;;6.45;4.65;;;;;;;-1.80;75.80;96362.31;5140575;27;20051;-66
2022/12/14 00:21:28;;;;;;;5.55;3.67;;;;;;;-1.84;76.19;96352.88;5140626;27;20043;-65
2022/12/14 00:23:57;;;;;;;6.90;4.78;;;;;;;-1.77;76.41;96359.78;5140585;27;20047;-67
2022/12/14 00:26:27;;;;;;;6.60;4.83;;;;;;;-1.73;76.28;96365.78;5140526;27;20047;-62
2022/12/14 00:28:55;;;;;;;7.13;5.25;;;;;;;-1.72;76.54;96362.38;5140521;27;20043;-64
2022/12/14 00:31:23;;;;;;;6.35;4.30;;;;;;;-1.71;76.50;96364.97;5140488;27;20386;-64
2022/12/14 00:33:51;;;;;;;8.30;4.55;;;;;;;-1.73;76.29;96358.06;5140561;27;20039;-62
2022/12/14 00:36:20;;;;;;;8.32;5.20;;;;;;;-1.72;76.20;96363.22;5140429;27;20074;-63
2022/12/14 00:38:47;;;;;;;6.60;4.40;;;;;;;-1.75;76.29;96368.31;5140561;27;20129;-62
2022/12/14 00:41:15;;;;;;;8.13;4.70;;;;;;;-1.73;76.31;96358.06;5140298;27;20043;-63
2022/12/14 00:43:42;;;;;;;7.28;5.03;;;;;;;-1.71;76.17;96353.84;5140577;27;20051;-64
2022/12/14 00:46:10;;;;;;;7.72;5.28;;;;;;;-1.68;76.07;96364.97;5140466;27;20046;-66
2022/12/14 00:48:37;;;;;;;6.50;4.80;;;;;;;-1.65;75.68;96359.00;5140452;27;20054;-64
2022/12/14 00:51:05;;;;;;;7.05;5.35;;;;;;;-1.62;76.17;96360.75;5140218;27;20047;-62
2022/12/14 00:53:33;;;;;;;9.02;6.07;;;;;;;-1.65;75.88;96352.16;5140416;27;20444;-65
2022/12/14 00:56:07;;;;;;;7.15;5.28;;;;;;;-1.67;76.03;96345.31;5140253;27;20050;-65
2022/12/14 00:58:34;;;;;;;8.05;4.88;;;;;;;-1.71;75.71;96344.44;5140226;27;20070;-63
2022/12/14 01:01:02;;;;;;;8.50;5.47;;;;;;;-1.68;75.99;96359.00;5140379;27;20082;-65
2022/12/14 01:03:30;;;;;;;8.85;5.32;;;;;;;-1.68;76.26;96359.00;5140283;27;20047;-61
2022/12/14 01:05:57;;;;;;;8.65;5.60;;;;;;;-1.65;76.54;96364.16;5139654;27;20448;-63
2022/12/14 01:08:24;;;;;;;8.70;5.78;;;;;;;-1.65;76.54;96359.84;5136255;27;20051;-65
2022/12/14 01:10:54;;;;;;;12.27;5.20;;;;;;;-1.62;76.90;96346.22;5136806;27;20043;-61
2022/12/14 01:13:21;;;;;;;4.23;3.40;;;;;;;-1.59;77.47;96347.94;5136972;27;20051;-63
2022/12/14 01:15:48;;;;;;;7.28;5.10;;;;;;;-1.57;77.76;96333.38;5136995;27;20043;-64
2022/12/14 01:18:15;;;;;;;13.32;4.93;;;;;;;-1.51;77.31;96335.16;5136991;27;20428;-65
2022/12/14 01:20:42;;;;;;;6.40;4.45;;;;;;;-1.53;77.71;96335.16;5136788;27;20122;-62
2022/12/14 01:23:09;;;;;;;6.43;4.70;;;;;;;-1.48;77.13;96342.88;5136664;27;20047;-64
2022/12/14 01:25:36;;;;;;;9.35;5.28;;;;;;;-1.44;77.08;96342.03;5136636;27;20047;-62
2022/12/14 01:28:05;;;;;;;7.30;5.20;;;;;;;-1.47;77.22;96334.31;5136584;27;20043;-63
2022/12/14 01:30:32;;;;;;;8.15;5.93;;;;;;;-1.44;77.04;96336.91;5136610;27;20112;-65
2022/12/14 01:33:00;;;;;;;7.60;5.25;;;;;;;-1.37;76.69;96333.53;5136485;27;20057;-62
2022/12/14 01:35:27;;;;;;;7.78;5.50;;;;;;;-1.31;76.52;96325.00;5136486;27;20485;-61
2022/12/14 01:37:54;;;;;;;7.35;5.32;;;;;;;-1.30;75.94;96324.13;5136411;27;20051;-64
2022/12/14 01:40:21;;;;;;;8.40;5.85;;;;;;;-1.29;76.06;96324.16;5136426;27;20043;-61
2022/12/14 01:42:48;;;;;;;8.18;5.72;;;;;;;-1.25;76.07;96335.31;5136182;27;20054;-62
2022/12/14 01:45:21;;;;;;;10.18;5.80;;;;;;;-1.30;76.82;96331.84;5136413;27;20070;-63
2022/12/14 01:47:54;;;;;;;18.73;9.60;;;;;;;-1.31;76.62;96327.56;5136336;27;20082;-60
2022/12/14 01:50:29;;;;;;;11.43;7.32;;;;;;;-1.26;76.50;96331.03;5136247;27;20138;-60
2022/12/14 01:53:02;;;;;;;10.85;6.35;;;;;;;-1.19;76.66;96332.78;5136069;27;20043;-63
2022/12/14 01:55:33;;;;;;;7.78;5.57;;;;;;;-1.24;76.41;96333.63;5136025;27;20070;-64
2022/12/14 01:58:05;;;;;;;7.22;5.28;;;;;;;-1.25;76.46;96339.56;5136102;27;20054;-60
2022/12/14 02:00:34;;;;;;;9.73;6.32;;;;;;;-1.18;76.30;96336.19;5135945;27;20051;-60
2022/12/14 02:03:09;;;;;;;10.50;5.78;;;;;;;-1.15;76.52;96344.78;5136076;27;20047;-61
2022/12/14 02:05:41;;;;;;;9.23;6.05;;;;;;;-1.11;76.34;96340.53;5135977;27;20043;-63
2022/12/14 02:08:09;;;;;;;8.48;5.47;;;;;;;-1.07;76.09;96343.94;5135995;27;20512;-65
2022/12/14 02:10:36;;;;;;;10.50;6.70;;;;;;;-1.05;76.61;96349.97;5135698;27;20047;-64
2022/12/14 02:13:06;;;;;;;9.40;6.03;;;;;;;-1.05;75.96;96337.97;5135707;27;20059;-63
2022/12/14 02:15:38;;;;;;;8.98;6.07;;;;;;;-1.03;75.95;96345.69;5135788;27;20047;-61
2022/12/14 02:18:09;;;;;;;9.52;6.10;;;;;;;-1.04;76.21;96342.28;5135484;27;20043;-62
2022/12/14 02:20:43;;;;;;;;;;;;;;;-1.00;76.35;96347.44;5136022;27;20088;-64
2022/12/14 02:23:35;;;;;;;8.55;5.95;;;;;;;-1.06;76.20;96343.09;5135525;27;19919;-64
2022/12/14 02:26:34;;;;;;;10.95;6.38;;;;;;;-1.02;76.08;96345.69;5131714;27;20126;-63
2022/12/14 02:29:19;;;;;;;18.98;11.43;;;;;;;-0.96;76.38;96347.41;5135357;27;20126;-60
2022/12/14 02:31:54;;;;;;;11.63;6.38;;;;;;;-0.92;76.22;96345.72;5135271;27;20051;-63
2022/12/14 02:34:33;;;;;;;6.95;5.45;;;;;;;-0.92;76.08;96350.88;5135251;27;20043;-64
2022/12/14 02:37:09;;;;;;;9.82;6.13;;;;;;;-0.91;75.91;96361.16;5135361;27;20078;-64
2022/12/14 02:39:45;;;;;;;6.82;5.45;;;;;;;-0.90;76.72;96362.03;5135273;27;20122;-65
2022/12/14 02:42:14;;;;;;;11.20;5.45;;;;;;;-0.97;76.31;96362.84;5134947;27;20050;-63
2022/12/14 02:44:51;;;;;;;7.07;4.97;;;;;;;-1.02;75.61;96371.38;5135191;27;20042;-64
2022/12/14 02:47:26;;;;;;;8.02;5.72;;;;;;;-0.99;75.57;96354.25;5135026;27;20104;-65
2022/12/14 02:50:03;;;;;;;7.60;5.57;;;;;;;-0.94;74.92;96356.00;5135226;27;20515;-62
2022/12/14 02:52:41;;;;;;;9.35;6.53;;;;;;;-0.97;75.18;96362.84;5134818;27;20134;-62
2022/12/14 02:55:14;;;;;;;11.93;8.43;;;;;;;-0.99;75.53;96364.53;5135009;27;20043;-64
2022/12/14 02:57:47;;;;;;;9.05;6.80;;;;;;;-0.96;75.69;96373.09;5134831;27;20484;-66
2022/12/14 03:00:16;;;;;;;8.80;6.05;;;;;;;-0.88;75.98;96373.13;5134819;27;20119;-63
2022/12/14 03:02:45;;;;;;;8.32;5.68;;;;;;;-0.83;76.64;96366.34;5134704;27;20088;-62
2022/12/14 03:05:12;;;;;;;7.25;5.32;;;;;;;-0.77;76.65;96373.19;5134783;27;20100;-63
2022/12/14 03:07:45;;;;;;;7.50;5.63;;;;;;;-0.78;76.62;96376.63;5134591;27;20506;-64
2022/12/14 03:10:21;;;;;;;9.50;5.68;;;;;;;-0.75;76.69;96384.34;5134656;27;20044;-64
2022/12/14 03:12:54;;;;;;;7.35;5.07;;;;;;;-0.70;76.97;96392.06;5134592;27;20085;-61
2022/12/14 03:15:26;;;;;;;7.97;4.90;;;;;;;-0.70;76.21;96392.06;5134491;27;20053;-61
2022/12/14 03:17:57;;;;;;;11.18;5.25;;;;;;;-0.73;76.85;96381.78;5134556;27;20043;-61
2022/12/14 03:20:28;;;;;;;8.55;5.40;;;;;;;-0.72;77.30;96378.38;5134490;27;20044;-63
2022/12/14 03:23:00;;;;;;;6.57;4.70;;;;;;;-0.65;77.48;96380.09;5134496;27;20476;-64
2022/12/14 03:25:33;;;;;;;7.53;5.32;;;;;;;-0.69;76.98;96366.38;5134485;27;20047;-64
2022/12/14 03:28:05;;;;;;;8.32;5.38;;;;;;;-0.71;76.79;96370.66;5134488;27;20039;-65
2022/12/14 03:30:38;;;;;;;9.38;5.53;;;;;;;-0.64;76.65;96371.53;5133580;27;20134;-60
2022/12/14 03:33:09;;;;;;;7.22;5.03;;;;;;;-0.65;76.80;96364.69;5134287;27;20488;-63
2022/12/14 03:35:43;;;;;;;9.27;5.55;;;;;;;-0.59;77.10;96368.97;5134214;27;20107;-63
2022/12/14 03:38:16;;;;;;;8.95;5.10;;;;;;;-0.56;76.82;96367.28;5134268;27;20428;-60
2022/12/14 03:40:49;;;;;;;8.10;5.75;;;;;;;-0.54;75.69;96373.28;5134132;27;20130;-63
2022/12/14 03:43:22;;;;;;;10.50;6.45;;;;;;;-0.56;73.06;96369.00;5134081;27;20118;-66
2022/12/14 03:45:58;;;;;;;8.90;6.38;;;;;;;-0.54;73.08;96369.88;5134114;27;20130;-62
2022/12/14 03:48:31;;;;;;;9.68;6.50;;;;;;;-0.51;73.29;96365.56;5134155;27;20050;-64
2022/12/14 03:51:10;;;;;;;9.82;6.78;;;;;;;-0.48;73.30;96362.16;5134124;27;20088;-62
2022/12/14 03:53:46;;;;;;;10.43;6.80;;;;;;;-0.51;72.34;96363.00;5134142;28;20389;-65
2022/12/14 03:56:17;;;;;;;10.15;6.40;;;;;;;-0.66;70.85;96370.69;5134057;28;20039;-63
2022/12/14 03:58:51;;;;;;;11.07;7.35;;;;;;;-0.67;70.63;96363.81;5134038;28;20099;-62
2022/12/14 04:01:33;;;;;;;13.48;7.30;;;;;;;-0.67;70.63;96356.09;5133919;28;20443;-60
2022/12/14 04:04:05;;;;;;;10.77;8.23;;;;;;;-0.68;71.61;96357.81;5133997;28;20053;-59
2022/12/14 04:06:42;;;;;;;13.50;8.15;;;;;;;-0.66;72.31;96368.13;5134102;28;20126;-64
2022/12/14 04:09:22;;;;;;;12.52;7.20;;;;;;;-0.65;72.62;96362.09;5133902;28;20135;-64
2022/12/14 04:20:31;;;;;;;9.65;6.68;;;;;;;-0.82;72.45;96364.59;5096902;28;20039;-63
2022/12/14 04:23:05;;;;;;;10.18;7.57;;;;;;;-0.97;71.56;96367.97;5133869;28;20043;-63
2022/12/14 04:31:13;;;;;;;8.60;5.57;;;;;;;-1.11;72.19;96345.66;5133814;28;20054;-63
2022/12/14 04:33:46;;;;;;;;;;;;;;;-1.17;71.88;96343.91;5134124;28;20043;-61
2022/12/14 04:36:16;;;;;;;7.65;5.25;;;;;;;-1.32;72.39;96336.97;5133606;28;19920;-61
2022/12/14 04:38:46;;;;;;;10.40;5.80;;;;;;;-1.32;73.03;96333.56;5133608;28;20514;-65
2022/12/14 04:41:15;;;;;;;;;;;;;;;-1.43;70.44;96333.50;5133945;27;20100;-63
2022/12/14 04:43:45;;;;;;;7.05;4.60;;;;;;;-1.46;70.06;96330.91;5137050;27;19981;-63
2022/12/14 04:46:15;;;;;;;8.20;4.85;;;;;;;-1.47;71.45;96319.81;5137527;27;20046;-64
2022/12/14 04:48:51;;;;;;;8.20;5.72;;;;;;;-1.51;71.28;96315.47;5137417;27;20054;-60
2022/12/14 04:51:25;;;;;;;8.50;5.55;;;;;;;-1.54;71.70;96323.16;5137349;27;20047;-61
2022/12/14 04:54:00;;;;;;;6.78;5.22;;;;;;;-1.50;71.95;96326.59;5137279;27;20404;-63
2022/12/14 04:56:34;;;;;;;8.55;4.55;;;;;;;-1.49;72.14;96325.75;5137236;27;20043;-65
2022/12/14 04:59:01;;;;;;;7.25;4.82;;;;;;;-1.53;70.57;96322.31;5137253;27;20055;-61
2022/12/14 05:01:43;;;;;;;6.57;4.80;;;;;;;-1.56;71.60;96318.00;5137120;27;20501;-61
2022/12/14 05:04:20;;;;;;;7.97;4.85;;;;;;;-1.64;69.60;96322.25;5137185;27;20050;-63
2022/12/14 05:06:56;;;;;;;7.10;4.80;;;;;;;-1.63;68.28;96325.69;5137173;27;20047;-61
2022/12/14 05:09:28;;;;;;;6.80;4.70;;;;;;;-1.53;70.05;96333.41;5137115;27;20138;-62
2022/12/14 05:12:04;;;;;;;7.35;4.85;;;;;;;-1.61;69.44;96331.66;5136865;27;20054;-64
2022/12/14 05:14:40;;;;;;;5.18;4.25;;;;;;;-1.58;68.02;96340.25;5136854;27;20487;-59
2022/12/14 05:17:08;;;;;;;6.20;4.65;;;;;;;-1.55;69.36;96331.69;5136969;27;20064;-64
2022/12/14 05:19:37;;;;;;;8.23;4.43;;;;;;;-1.48;69.72;96337.75;5136930;27;20047;-62
2022/12/14 05:22:08;;;;;;;7.57;4.63;;;;;;;-1.50;67.35;96355.69;5136801;27;20079;-63
2022/12/14 05:24:36;;;;;;;8.05;4.72;;;;;;;-1.42;67.63;96379.69;5136751;27;20508;-63
2022/12/14 05:27:04;;;;;;;6.15;4.95;;;;;;;-1.28;68.28;96376.34;5136658;27;20130;-62
2022/12/14 05:29:33;;;;;;;8.80;5.63;;;;;;;-1.21;69.77;96377.28;5136762;27;20043;-61
2022/12/14 05:32:01;;;;;;;7.22;5.28;;;;;;;-1.16;69.10;96366.19;5136664;27;20442;-59
2022/12/14 05:34:28;;;;;;;7.07;4.97;;;;;;;-1.07;70.53;96367.94;5136574;27;20044;-62
2022/12/14 05:36:57;;;;;;;7.70;5.10;;;;;;;-1.02;71.05;96357.69;5136363;27;20100;-62
2022/12/14 05:39:24;;;;;;;6.75;4.53;;;;;;;-0.99;70.83;96362.84;5136418;27;20506;-63
2022/12/14 05:41:52;;;;;;;7.35;5.05;;;;;;;-1.03;69.66;96366.22;5136317;27;20098;-63
2022/12/14 05:44:19;;;;;;;7.80;5.15;;;;;;;-1.03;69.14;96367.09;5136312;27;20055;-62
2022/12/14 05:46:48;;;;;;;9.73;5.95;;;;;;;-1.00;68.34;96365.41;5136377;27;20069;-64
2022/12/14 05:49:15;;;;;;;8.85;5.75;;;;;;;-0.98;67.12;96379.09;5136291;27;20104;-64
2022/12/14 05:51:42;;;;;;;7.00;4.88;;;;;;;-0.99;68.19;96383.38;5136184;27;20051;-62
2022/12/14 05:54:11;;;;;;;6.50;4.55;;;;;;;-0.93;66.59;96395.41;5135577;27;20051;-61
2022/12/14 05:56:38;;;;;;;7.57;5.20;;;;;;;-0.85;68.49;96393.72;5136124;27;20070;-64
2022/12/14 05:59:06;;;;;;;6.55;4.75;;;;;;;-0.74;69.00;96398.91;5136110;27;20047;-63
2022/12/14 06:01:33;;;;;;;7.07;4.85;;;;;;;-0.69;70.26;96397.19;5135975;27;20055;-60
2022/12/14 06:04:00;;;;;;;7.15;4.60;;;;;;;-0.73;68.73;96408.31;5136020;27;20089;-62
2022/12/14 06:06:27;;;;;;;6.72;4.75;;;;;;;-0.71;68.51;96401.50;5135999;27;20043;-64
2022/12/14 06:08:54;;;;;;;11.55;5.50;;;;;;;-0.62;68.84;96404.94;5135821;27;20542;-62
2022/12/14 06:11:23;;;;;;;10.63;5.25;;;;;;;-0.64;65.36;96404.94;5135710;27;20076;-63
2022/12/14 06:13:51;;;;;;;10.00;5.93;;;;;;;-0.65;64.88;96391.25;5135902;27;20051;-61
2022/12/14 06:16:21;;;;;;;13.18;5.60;;;;;;;-0.68;65.53;96390.34;5135711;27;20046;-62
2022/12/14 06:18:50;;;;;;;10.82;5.50;;;;;;;-0.67;66.24;96389.50;5135693;27;20092;-61
2022/12/14 06:21:19;;;;;;;7.13;5.10;;;;;;;-0.58;66.13;96402.38;5135620;27;20050;-60
2022/12/14 06:23:47;;;;;;;8.55;6.20;;;;;;;-0.47;65.44;96397.31;5135669;27;20047;-63
2022/12/14 06:26:16;;;;;;;11.95;5.88;;;;;;;-0.33;65.27;96402.47;5135527;27;20044;-61
2022/12/14 06:28:44;;;;;;;9.25;4.32;;;;;;;-0.22;64.67;96407.66;5135502;27;20523;-61
2022/12/14 06:31:16;;;;;;;7.18;4.68;;;;;;;-0.14;63.63;96402.53;5135504;27;20120;-60
2022/12/14 06:33:44;;;;;;;7.13;4.70;;;;;;;0.05;60.54;96398.28;5135320;27;20412;-62
2022/12/14 06:36:17;;;;;;;5.47;4.43;;;;;;;0.84;58.34;96391.41;5135337;27;20051;-63
2022/12/14 06:38:45;;;;;;;7.00;4.47;;;;;;;1.47;55.73;96394.63;5135212;27;20484;-63
2022/12/14 06:41:12;;;;;;;5.63;3.60;;;;;;;1.84;55.96;96384.13;5135135;27;20122;-64
2022/12/14 06:43:39;;;;;;;6.82;4.40;;;;;;;2.52;54.71;96394.84;5135175;27;20481;-61
2022/12/14 06:46:09;;;;;;;5.57;4.03;;;;;;;3.01;53.67;96408.22;5135139;27;20449;-62
2022/12/14 06:48:37;;;;;;;7.05;5.05;;;;;;;3.20;51.99;96411.47;5135156;27;20051;-67
2022/12/14 06:51:05;;;;;;;6.47;4.82;;;;;;;2.94;52.85;96399.66;5135051;27;20104;-67
2022/12/14 06:53:35;;;;;;;6.45;4.47;;;;;;;3.09;52.41;96400.34;5135029;27;20055;-64
2022/12/14 06:56:09;;;;;;;8.95;4.82;;;;;;;4.20;51.62;96405.03;5134869;27;20054;-65
2022/12/14 06:58:39;;;;;;;8.82;4.65;;;;;;;6.00;47.08;96417.38;5134980;27;20075;-64
2022/12/14 07:01:11;;;;;;;8.38;4.43;;;;;;;7.19;44.08;96407.63;5134870;27;20549;-65
2022/12/14 07:03:44;;;;;;;5.63;4.38;;;;;;;8.24;40.91;96415.13;5134857;27;20047;-64
2022/12/14 07:06:11;;;;;;;5.93;3.90;;;;;;;8.93;40.07;96413.84;5134054;27;20130;-66
2022/12/14 07:08:39;;;;;;;11.48;5.03;;;;;;;10.12;36.93;96415.75;5134801;27;20075;-66
2022/12/14 07:11:08;;;;;;;5.60;3.97;;;;;;;11.52;33.64;96401.38;5134756;27;20051;-64
2022/12/14 07:13:37;;;;;;;5.00;3.97;;;;;;;11.78;32.53;96422.13;5134346;27;20062;-65
2022/12/14 07:16:06;;;;;;;5.45;4.18;;;;;;;11.74;31.57;96421.41;5134759;27;20494;-66
2022/12/14 07:18:35;;;;;;;5.00;4.10;;;;;;;12.10;31.10;96431.16;5134575;27;20043;-68
2022/12/14 07:21:04;;;;;;;4.80;4.03;;;;;;;12.93;29.70;96422.06;5134515;27;20039;-64
2022/12/14 07:23:36;;;;;;;4.65;3.75;;;;;;;13.16;28.79;96434.97;5134521;27;20043;-61
2022/12/14 07:26:05;;;;;;;4.82;3.70;;;;;;;14.17;28.05;96432.41;5134427;27;20130;-67
2022/12/14 07:28:33;;;;;;;4.68;3.28;;;;;;;14.48;25.45;96440.41;5134362;27;20141;-68
2022/12/14 07:31:00;;;;;;;4.20;3.33;;;;;;;13.83;27.33;96434.22;5134330;27;20047;-65
2022/12/14 07:33:28;;;;;;;4.05;3.65;;;;;;;12.86;27.91;96432.00;5134326;27;20481;-67
2022/12/14 07:36:04;;;;;;;5.65;3.20;;;;;;;11.86;28.28;96428.72;5134264;27;20058;-62
2022/12/14 07:38:32;;;;;;;4.20;3.63;;;;;;;11.41;29.69;96427.22;5134394;27;20055;-65
2022/12/14 07:41:03;;;;;;;4.35;3.03;;;;;;;11.34;29.81;96430.09;5134165;27;20043;-66
2022/12/14 07:43:30;;;;;;;5.47;3.53;;;;;;;10.99;29.68;96435.88;5134015;27;20067;-63
2022/12/14 07:46:01;;;;;;;3.88;3.20;;;;;;;11.09;30.69;96425.91;5134081;27;20043;-66
2022/12/14 07:48:29;;;;;;;3.33;3.03;;;;;;;10.95;30.46;96421.22;5134182;27;20400;-65
2022/12/14 07:51:03;;;;;;;4.38;3.15;;;;;;;12.19;29.42;96406.28;5134195;27;20054;-63
2022/12/14 07:53:30;;;;;;;4.13;3.40;;;;;;;11.80;28.28;96412.44;5133925;27;20047;-66
2022/12/14 07:56:01;;;;;;;3.92;2.80;;;;;;;11.07;29.54;96430.34;5134248;28;20047;-65
2022/12/14 07:58:29;;;;;;;4.13;3.35;;;;;;;9.95;31.62;96429.44;5134085;28;20408;-65
2022/12/14 08:00:56;;;;;;;4.10;3.08;;;;;;;9.87;31.66;96427.09;5134005;28;20039;-63
2022/12/14 08:03:23;;;;;;;4.45;2.95;;;;;;;10.06;31.68;96435.09;5134014;28;20039;-66
2022/12/14 08:05:50;;;;;;;3.17;2.67;;;;;;;11.44;29.64;96427.09;5133850;28;20062;-64
2022/12/14 08:08:19;;;;;;;3.80;2.75;;;;;;;12.35;27.71;96432.66;5133692;28;20039;-62
2022/12/14 08:10:48;;;;;;;3.28;2.88;;;;;;;12.92;28.24;96440.50;5133856;28;20039;-64
2022/12/14 08:13:15;;;;;;;3.92;2.97;;;;;;;12.95;28.15;96437.72;5133758;28;20069;-66
2022/12/14 08:15:42;;;;;;;3.17;2.88;;;;;;;13.25;28.85;96445.00;5134232;27;20047;-65
2022/12/14 08:18:10;;;;;;;4.15;3.55;;;;;;;13.33;28.59;96453.34;5137957;27;20054;-66
2022/12/14 08:20:37;;;;;;;3.58;2.95;;;;;;;12.64;29.46;96448.78;5137973;27;20082;-63
2022/12/14 08:23:05;;;;;;;5.05;3.70;;;;;;;11.85;30.54;96457.59;5137968;27;20071;-64
2022/12/14 08:25:34;;;;;;;5.13;3.95;;;;;;;10.89;32.20;96452.88;5137675;27;20389;-64
2022/12/14 08:28:01;;;;;;;4.18;3.55;;;;;;;10.21;32.50;96459.81;5137907;27;20050;-64
2022/12/14 08:30:28;;;;;;;4.72;3.85;;;;;;;9.50;33.58;96460.63;5137797;27;20043;-64
2022/12/14 08:32:55;;;;;;;4.15;3.55;;;;;;;8.94;35.85;96463.34;5137728;27;20043;-63
2022/12/14 08:35:24;;;;;;;3.85;3.45;;;;;;;8.46;36.09;96459.63;5137718;27;20056;-63
2022/12/14 08:37:53;;;;;;;5.65;4.13;;;;;;;8.16;35.50;96463.09;5137753;27;20086;-66
2022/12/14 08:40:20;;;;;;;4.50;3.22;;;;;;;8.61;37.42;96458.31;5137543;27;20442;-65
2022/12/14 08:42:51;;;;;;;5.60;3.38;;;;;;;9.28;36.86;96465.75;5137332;27;20043;-64
2022/12/14 08:45:18;;;;;;;6.63;3.53;;;;;;;9.86;32.20;96462.84;5137521;27;20174;-62
2022/12/14 08:47:46;;;;;;;3.78;3.08;;;;;;;9.79;33.72;96452.66;5137467;27;20043;-65
2022/12/14 08:50:14;;;;;;;4.57;3.50;;;;;;;9.16;33.39;96444.38;5137423;27;20167;-63
2022/12/14 08:52:41;;;;;;;5.88;3.40;;;;;;;8.93;32.93;96450.34;5137324;27;20146;-62
2022/12/14 08:55:08;;;;;;;4.70;3.35;;;;;;;9.35;34.28;96441.13;5137326;27;20534;-65
2022/12/14 08:57:36;;;;;;;4.32;3.47;;;;;;;9.95;33.76;96442.50;5137194;27;20058;-66
2022/12/14 09:00:07;;;;;;;3.88;3.20;;;;;;;9.66;33.08;96445.28;5137275;27;20043;-65
2022/12/14 09:02:34;;;;;;;5.18;3.92;;;;;;;9.07;34.44;96442.94;5137200;27;20126;-63
2022/12/14 09:05:02;;;;;;;3.95;3.30;;;;;;;8.90;34.35;96440.03;5137155;27;20043;-62
2022/12/14 09:07:29;;;;;;;4.40;3.60;;;;;;;8.69;35.36;96437.22;5137164;27;20138;-64
2022/12/14 09:09:57;;;;;;;5.97;4.38;;;;;;;8.52;36.14;96433.34;5137065;27;20061;-67
2022/12/14 09:12:25;;;;;;;5.78;4.00;;;;;;;8.53;35.46;96432.47;5136937;27;20051;-65
2022/12/14 09:14:52;;;;;;;3.75;3.00;;;;;;;8.29;34.35;96427.13;5136921;27;20051;-62
2022/12/14 09:17:21;;;;;;;4.25;3.30;;;;;;;8.13;33.61;96418.06;5136954;27;20043;-63
2022/12/14 09:19:48;;;;;;;4.40;3.10;;;;;;;8.32;35.82;96405.31;5136938;27;20075;-62
2022/12/14 09:22:15;;;;;;;4.82;3.95;;;;;;;8.49;35.19;96409.16;5136753;27;20126;-63
2022/12/14 09:24:42;;;;;;;4.32;3.13;;;;;;;8.39;35.55;96413.78;5136751;27;20090;-66
2022/12/14 09:27:10;;;;;;;4.32;3.65;;;;;;;8.34;35.18;96414.78;5136242;27;20053;-67
2022/12/14 09:29:37;;;;;;;4.63;3.35;;;;;;;8.44;34.50;96406.69;5136359;27;20050;-66
2022/12/14 09:32:05;;;;;;;4.65;3.72;;;;;;;8.30;33.73;96405.34;5136552;27;20051;-67
2022/12/14 09:34:33;;;;;;;5.47;3.25;;;;;;;7.89;35.48;96415.28;5136484;27;20047;-65
2022/12/14 09:37:03;;;;;;;4.60;3.35;;;;;;;7.59;36.46;96411.75;5136533;27;20043;-65
2022/12/14 09:39:30;;;;;;;9.98;3.67;;;;;;;7.12;38.77;96403.50;5136377;27;20058;-66
2022/12/14 09:42:10;;;;;;;4.30;3.50;;;;;;;6.63;38.53;96409.91;5136166;27;20513;-64
2022/12/14 09:44:54;;;;;;;6.22;3.80;;;;;;;6.46;40.62;96407.72;5136414;27;20127;-65
2022/12/14 09:47:26;;;;;;;7.10;3.58;;;;;;;6.19;41.11;96412.66;5136236;27;20047;-64
2022/12/14 09:49:58;;;;;;;6.90;4.07;;;;;;;6.06;41.02;96410.31;5136167;27;20436;-61
2022/12/14 09:52:34;;;;;;;6.25;4.15;;;;;;;6.03;41.75;96405.19;5136168;27;20043;-61
2022/12/14 09:55:05;;;;;;;7.90;4.35;;;;;;;6.02;41.87;96410.41;5136215;27;20463;-64
2022/12/14 09:57:38;;;;;;;5.10;3.70;;;;;;;6.09;40.92;96405.94;5136113;27;20134;-64
2022/12/14 10:00:12;;;;;;;4.97;3.40;;;;;;;6.15;41.30;96408.41;5136229;27;20415;-66
2022/12/14 10:02:49;;;;;;;4.65;3.97;;;;;;;6.16;42.36;96412.72;5136019;27;20047;-63
2022/12/14 10:05:28;;;;;;;8.77;3.78;;;;;;;6.02;42.43;96400.84;5135936;27;20061;-63
2022/12/14 10:08:06;;;;;;;4.57;3.45;;;;;;;6.01;42.25;96390.50;5135924;27;20043;-64
2022/12/14 10:10:43;;;;;;;3.35;2.95;;;;;;;5.91;41.54;96366.50;5135853;27;20043;-65
2022/12/14 10:13:19;;;;;;;3.92;2.92;;;;;;;5.84;43.17;96362.31;5135786;27;20047;-65
2022/12/14 10:16:00;;;;;;;7.18;3.60;;;;;;;5.77;42.96;96359.00;5135675;27;20434;-63
2022/12/14 10:18:33;;;;;;;;;;;;;;;5.77;43.58;96359.00;5136163;27;20075;-63
2022/12/14 10:21:06;;;;;;;6.53;3.70;;;;;;;5.71;43.31;96370.38;5135613;27;19946;-65
2022/12/14 10:23:34;;;;;;;4.53;3.55;;;;;;;5.64;44.00;96366.19;5135581;27;20396;-64
2022/12/14 10:26:06;;;;;;;4.60;3.42;;;;;;;5.62;44.42;96368.81;5135706;27;20047;-65
2022/12/14 10:28:42;;;;;;;5.07;2.90;;;;;;;5.62;44.89;96365.38;5135548;27;20043;-66
2022/12/14 10:31:14;;;;;;;4.38;3.13;;;;;;;5.64;43.78;96351.50;5135506;27;20051;-66
2022/12/14 10:33:45;;;;;;;4.65;3.55;;;;;;;5.68;44.44;96352.25;5135463;27;20047;-64
2022/12/14 10:36:17;;;;;;;;;;;;;;;5.65;42.62;96352.31;5135921;27;20092;-62
2022/12/14 10:38:52;;;;;;;3.30;2.50;;;;;;;5.42;42.23;96346.72;5135188;27;19920;-66
2022/12/14 10:41:28;;;;;;;3.05;2.28;;;;;;;5.26;42.76;96345.34;5135037;27;20491;-65
2022/12/14 10:44:02;;;;;;;4.88;3.25;;;;;;;5.05;44.25;96347.47;5135174;27;20051;-63
2022/12/14 10:46:43;;;;;;;6.88;4.00;;;;;;;4.90;45.48;96349.47;5135164;27;20050;-64
2022/12/14 10:49:20;;;;;;;4.53;2.92;;;;;;;4.84;44.58;96341.81;5135228;27;20043;-64
2022/12/14 10:51:55;;;;;;;3.63;2.78;;;;;;;4.90;46.93;96344.28;5134823;27;20143;-65
2022/12/14 10:54:30;;;;;;;3.63;2.53;;;;;;;5.01;47.12;96351.88;5135002;27;20420;-65
2022/12/14 10:56:58;;;;;;;3.78;2.60;;;;;;;5.08;46.85;96351.75;5134909;27;20051;-63
2022/12/14 10:59:31;;;;;;;5.38;3.25;;;;;;;5.21;47.35;96360.16;5134809;27;20489;-63
2022/12/14 11:02:04;;;;;;;3.28;2.40;;;;;;;5.21;45.71;96355.78;5134841;27;20043;-62
2022/12/14 11:04:37;;;;;;;3.90;2.22;;;;;;;5.21;46.27;96350.59;5134723;27;20096;-62
2022/12/14 11:07:09;;;;;;;4.85;2.85;;;;;;;5.18;47.53;96343.75;5134695;27;20043;-64
2022/12/14 11:09:37;;;;;;;6.63;3.05;;;;;;;5.31;46.80;96338.31;5134912;27;20467;-66
2022/12/14 11:12:08;;;;;;;4.20;2.78;;;;;;;5.40;46.42;96335.56;5134690;27;20473;-66
2022/12/14 11:14:36;;;;;;;5.35;3.55;;;;;;;5.58;46.92;96330.84;5134535;27;20058;-64
2022/12/14 11:17:04;;;;;;;3.90;3.13;;;;;;;5.67;47.37;96332.41;5134570;27;20043;-65
2022/12/14 11:19:31;;;;;;;5.90;3.17;;;;;;;5.77;47.75;96326.13;5134551;27;20103;-63
2022/12/14 11:22:16;;;;;;;6.18;4.03;;;;;;;5.88;47.74;96336.28;5134412;27;20104;-64
2022/12/14 11:24:46;;;;;;;4.13;3.15;;;;;;;5.93;48.25;96337.00;5134667;27;20039;-64
2022/12/14 11:27:17;;;;;;;5.45;2.58;;;;;;;5.90;48.62;96328.44;5134529;27;20462;-66
2022/12/14 11:29:48;;;;;;;3.53;2.88;;;;;;;5.99;48.44;96322.19;5134457;27;20039;-65
2022/12/14 11:32:23;;;;;;;5.22;3.08;;;;;;;5.96;48.56;96315.28;5134340;27;20047;-65
2022/12/14 11:34:57;;;;;;;5.85;3.78;;;;;;;6.04;48.46;96315.16;5134149;27;20138;-64
2022/12/14 11:37:27;;;;;;;8.48;2.90;;;;;;;6.01;49.50;96310.88;5134182;27;20122;-65
2022/12/14 11:39:56;;;;;;;4.95;2.80;;;;;;;6.04;50.18;96307.38;5134228;27;20047;-66
2022/12/14 11:42:24;;;;;;;4.07;3.10;;;;;;;6.04;50.82;96305.63;5133982;27;20043;-65
2022/12/14 11:44:53;;;;;;;3.35;2.90;;;;;;;6.11;51.55;96310.69;5134180;27;20047;-62
2022/12/14 11:47:22;;;;;;;3.45;2.30;;;;;;;5.97;53.18;96306.63;5134077;27;20047;-62
2022/12/14 11:49:51;;;;;;;2.70;2.40;;;;;;;5.85;54.23;96299.13;5134125;27;20100;-66
2022/12/14 11:52:20;;;;;;;4.88;2.28;;;;;;;5.75;54.68;96306.28;5133623;27;20053;-63
2022/12/14 11:55:10;;;;;;;2.58;2.25;;;;;;;5.67;56.92;96301.25;5134002;27;20047;-65
2022/12/14 11:57:47;;;;;;;3.05;2.33;;;;;;;5.72;55.76;96299.38;5134063;28;20057;-65
2022/12/14 12:00:24;;;;;;;6.25;2.28;;;;;;;5.75;56.45;96296.72;5133920;28;20054;-64
2022/12/14 12:02:59;;;;;;;2.47;2.22;;;;;;;5.73;57.09;96297.66;5133957;28;20096;-64
2022/12/14 12:05:28;;;;;;;3.10;2.65;;;;;;;5.77;57.13;96287.19;5133977;28;20047;-65
2022/12/14 12:07:58;;;;;;;2.45;2.25;;;;;;;5.78;56.64;96281.09;5133926;28;20046;-62